WetterOnline ( https://www.wetteronline.de )

Wetter aktuell Nuthetal

Aktuelles Wetter: Potsdam (100m)

6-stündlich | Neueste Meldungen
Ortszeit Temperatur Wetter
Fr, 01.03. 1:00 4.2° C fast wolkenlos
Do, 29.02. 19:00 6.0° C leicht bewölkt
Do, 29.02. 13:00 9.7° C leicht bewölkt
Do, 29.02. 7:00 -1.6° C wolkenlos
Do, 29.02. 1:00 -1.0° C leicht bewölkt
Mi, 28.02. 19:00 2.5° C wolkig
Mi, 28.02. 13:00 3.2° C bedeckt
Mi, 28.02. 7:00 2.7° C bedeckt
Ortszeit Temperatur Wetter
Fr, 01.03. 1:00 4.2° C fast wolkenlos
Fr, 01.03. 0:50 4.2° C fast wolkenlos
Fr, 01.03. 0:40 4.3° C leicht bewölkt
Fr, 01.03. 0:30 4.6° C wolkig
Fr, 01.03. 0:20 4.6° C wolkig
Fr, 01.03. 0:10 4.3° C leicht bewölkt
Fr, 01.03. 0:00 4.6° C wolkenlos
Do, 29.02. 23:30 5.4° C bewölkt
Do, 29.02. 23:00 5.8° C bewölkt
Do, 29.02. 22:30 6.5° C bedeckt
Do, 29.02. 22:00 6.9° C bedeckt
Ortszeit Relative Feuchte Sichtweite
Fr, 01.03. 1:00 93% 8 km
Do, 29.02. 19:00 77% 23 km
Do, 29.02. 13:00 58% 30 km
Do, 29.02. 7:00 94% 3.0 km
Do, 29.02. 1:00 93% 6 km
Mi, 28.02. 19:00 77% 30 km
Mi, 28.02. 13:00 76% 27 km
Mi, 28.02. 7:00 93% 6 km
Ortszeit Relative Feuchte Sichtweite
Fr, 01.03. 1:00 93% 8 km
Fr, 01.03. 0:50 93% -
Fr, 01.03. 0:40 93% -
Fr, 01.03. 0:30 93% 9 km
Fr, 01.03. 0:20 93% -
Fr, 01.03. 0:10 92% -
Fr, 01.03. 0:00 91% 10 km
Do, 29.02. 23:30 88% 15 km
Do, 29.02. 23:00 86% 16 km
Do, 29.02. 22:30 83% 17 km
Do, 29.02. 22:00 81% 20 km
Ortszeit Niederschlagsmenge Niederschlagsart
Fr, 01.03. 1:00 0.0 l/m2 in 6 Std. -
Do, 29.02. 19:00 0.0 l/m2 in 12 Std. -
Do, 29.02. 13:00 0.0 l/m2 in 6 Std. -
Do, 29.02. 7:00 0.0 l/m2 in 12 Std. -
Do, 29.02. 1:00 0.0 l/m2 in 6 Std. -
Mi, 28.02. 19:00 0.1 l/m2 in 12 Std. -
Mi, 28.02. 13:00 0.1 l/m2 in 6 Std. Sprühregen
Mi, 28.02. 7:00 0.1 l/m2 in 12 Std. Sprühregen
Ortszeit Niederschlagsmenge Niederschlagsart
Fr, 01.03. 1:00 0.0 l/m2 in 1 Std. -
Fr, 01.03. 0:50 keine Meldung -
Fr, 01.03. 0:40 keine Meldung -
Fr, 01.03. 0:30 0.0 l/m2 in 30 Min -
Fr, 01.03. 0:20 keine Meldung -
Fr, 01.03. 0:10 keine Meldung -
Fr, 01.03. 0:00 0.0 l/m2 in 1 Std. -
Do, 29.02. 23:30 0.0 l/m2 in 30 Min -
Do, 29.02. 23:00 0.0 l/m2 in 1 Std. -
Do, 29.02. 22:30 0.0 l/m2 in 30 Min -
Do, 29.02. 22:00 0.0 l/m2 in 1 Std. -
Ortszeit Stärke Spitze Richtung
km/h Bft. km/h Grad Sektor
Fr, 01.03. 1:00 14 3 29 110° O
Do, 29.02. 19:00 14 3 36 130° SO
Do, 29.02. 13:00 9 2 30 150° SO
Do, 29.02. 7:00 13 3 31 140° SO
Do, 29.02. 1:00 14 3 22 130° SO
Mi, 28.02. 19:00 14 3 22 110° O
Mi, 28.02. 13:00 11 2 29 280° W
Mi, 28.02. 7:00 7 2 22 300° NW
Ortszeit Stärke Spitze Richtung
km/h Bft. km/h Grad Sektor
Fr, 01.03. 1:00 14 3 22 110° O
Fr, 01.03. 0:50 14 3 - 110° O
Fr, 01.03. 0:40 14 3 - 110° O
Fr, 01.03. 0:30 14 3 22 110° O
Fr, 01.03. 0:20 14 3 - 110° O
Fr, 01.03. 0:10 15 3 - 120° SO
Fr, 01.03. 0:00 14 3 22 110° O
Do, 29.02. 23:30 11 2 18 110° O
Do, 29.02. 23:00 11 2 18 130° SO
Do, 29.02. 22:30 9 2 19 120° SO
Do, 29.02. 22:00 11 2 29 140° SO
Ortszeit Untergrenze Bedeckung Gattung
total tief tief mittel hoch
Fr, 01.03. 1:00 720 m 1/8 1/8 - - -
Do, 29.02. 19:00 10500 m 3/8 0/8 - - -
Do, 29.02. 13:00 10500 m 7/8 0/8 - - -
Do, 29.02. 7:00 - 0/8 0/8 - - -
Do, 29.02. 1:00 6000 m 3/8 1/8 - - -
Mi, 28.02. 19:00 9000 m 8/8 0/8 - - -
Mi, 28.02. 13:00 360 m 8/8 8/8 - - -
Mi, 28.02. 7:00 150 m 8/8 8/8 - - -
Ortszeit Bedeckungsgrad in Achtel und Wolkenuntergrenze
Fr, 01.03. 1:00 1(720m)
Fr, 01.03. 0:50 1(720m)
Fr, 01.03. 0:40 3
Fr, 01.03. 0:30 5(750m)
Fr, 01.03. 0:20 5(750m)
Fr, 01.03. 0:10 2
Fr, 01.03. 0:00 keine Wolken
Do, 29.02. 23:30 7(660m)
Do, 29.02. 23:00 7(660m)
Do, 29.02. 22:30 8(570m)
Do, 29.02. 22:00 8(600m)
Ortszeit Luftdruck NN (hPa) Tendenz (hPa in 3 Std.)
Fr, 01.03. 1:00 1009 - 1,7
Do, 29.02. 19:00 1013 - 1,3
Do, 29.02. 13:00 1016 - 2,0
Do, 29.02. 7:00 1020 - 1,0
Do, 29.02. 1:00 1022 - 0,9
Mi, 28.02. 19:00 1023 + 0,5
Mi, 28.02. 13:00 1023 + 0,9
Mi, 28.02. 7:00 1020 + 1,0
Ortszeit Luftdruck NN (hPa) Tendenz (hPa in 3 Std.)
Fr, 01.03. 1:00 1009 - 1,7
Fr, 01.03. 0:50 1009 keine Meldung
Fr, 01.03. 0:40 1009 keine Meldung
Fr, 01.03. 0:30 1009 - 1,7
Fr, 01.03. 0:20 1009 keine Meldung
Fr, 01.03. 0:10 1009 keine Meldung
Fr, 01.03. 0:00 1010 - 1,6
Do, 29.02. 23:30 1010 - 1,5
Do, 29.02. 23:00 1010 - 1,5
Do, 29.02. 22:30 1010 - 1,8
Do, 29.02. 22:00 1011 - 1,8
Ortszeit Schneehöhe (cm)
Fr, 01.03. 1:00 0
Do, 29.02. 19:00 0
Do, 29.02. 13:00 0
Do, 29.02. 7:00 0
Do, 29.02. 1:00 0
Mi, 28.02. 19:00 0
Mi, 28.02. 13:00 0
Mi, 28.02. 7:00 0
Ortszeit Schneehöhe (cm)
Fr, 01.03. 1:00 0
Fr, 01.03. 0:50 0
Fr, 01.03. 0:40 -
Fr, 01.03. 0:30 0
Fr, 01.03. 0:20 0
Fr, 01.03. 0:10 -
Fr, 01.03. 0:00 0
Do, 29.02. 23:30 0
Do, 29.02. 23:00 0
Do, 29.02. 22:30 0
Do, 29.02. 22:00 0
Link zu dieser Seite / Seite empfehlen

Das Wetter in ...